sensor_id;sensor_type;location;lat;lon;timestamp;temperature;humidity
14873;DHT22;7528;48.576;19.122;2022-12-29T00:02:43;2.40;69.80
14873;DHT22;7528;48.576;19.122;2022-12-29T00:07:45;2.40;69.70
14873;DHT22;7528;48.576;19.122;2022-12-29T00:12:47;2.40;69.60
14873;DHT22;7528;48.576;19.122;2022-12-29T00:18:09;2.40;70.20
14873;DHT22;7528;48.576;19.122;2022-12-29T00:23:12;2.40;69.50
14873;DHT22;7528;48.576;19.122;2022-12-29T00:28:31;2.40;69.00
14873;DHT22;7528;48.576;19.122;2022-12-29T00:33:53;2.30;69.30
14873;DHT22;7528;48.576;19.122;2022-12-29T00:39:15;2.30;69.00
14873;DHT22;7528;48.576;19.122;2022-12-29T00:44:36;2.20;69.60
14873;DHT22;7528;48.576;19.122;2022-12-29T00:49:40;2.20;69.90
14873;DHT22;7528;48.576;19.122;2022-12-29T00:54:43;2.20;69.10
14873;DHT22;7528;48.576;19.122;2022-12-29T00:59:46;2.20;69.40
14873;DHT22;7528;48.576;19.122;2022-12-29T01:04:51;2.20;69.60
14873;DHT22;7528;48.576;19.122;2022-12-29T01:09:54;2.20;69.40
14873;DHT22;7528;48.576;19.122;2022-12-29T01:15:16;2.10;69.50
14873;DHT22;7528;48.576;19.122;2022-12-29T01:20:19;2.10;69.60
14873;DHT22;7528;48.576;19.122;2022-12-29T01:25:22;2.10;69.00
14873;DHT22;7528;48.576;19.122;2022-12-29T01:30:25;2.00;69.50
14873;DHT22;7528;48.576;19.122;2022-12-29T01:35:29;2.10;69.50
14873;DHT22;7528;48.576;19.122;2022-12-29T01:40:32;2.10;69.50
14873;DHT22;7528;48.576;19.122;2022-12-29T01:45:35;2.20;69.50
14873;DHT22;7528;48.576;19.122;2022-12-29T01:50:43;2.30;69.70
14873;DHT22;7528;48.576;19.122;2022-12-29T01:55:50;2.40;69.60
14873;DHT22;7528;48.576;19.122;2022-12-29T02:00:54;2.50;69.60
14873;DHT22;7528;48.576;19.122;2022-12-29T02:06:01;2.50;70.10
14873;DHT22;7528;48.576;19.122;2022-12-29T02:11:05;2.50;70.40
14873;DHT22;7528;48.576;19.122;2022-12-29T02:16:19;2.60;70.80
14873;DHT22;7528;48.576;19.122;2022-12-29T02:27:31;2.70;70.90
14873;DHT22;7528;48.576;19.122;2022-12-29T02:32:44;2.80;71.10
14873;DHT22;7528;48.576;19.122;2022-12-29T02:37:56;2.90;71.20
14873;DHT22;7528;48.576;19.122;2022-12-29T02:43:06;2.90;70.90
14873;DHT22;7528;48.576;19.122;2022-12-29T02:48:19;3.00;71.20
14873;DHT22;7528;48.576;19.122;2022-12-29T02:53:25;3.00;71.30
14873;DHT22;7528;48.576;19.122;2022-12-29T02:58:42;3.10;71.80
14873;DHT22;7528;48.576;19.122;2022-12-29T03:03:55;3.10;71.60
14873;DHT22;7528;48.576;19.122;2022-12-29T03:09:11;3.10;71.60
14873;DHT22;7528;48.576;19.122;2022-12-29T03:14:22;3.10;72.10
14873;DHT22;7528;48.576;19.122;2022-12-29T03:19:51;3.10;72.70
14873;DHT22;7528;48.576;19.122;2022-12-29T03:24:58;3.10;72.50
14873;DHT22;7528;48.576;19.122;2022-12-29T03:30:05;3.20;72.80
14873;DHT22;7528;48.576;19.122;2022-12-29T03:35:13;3.30;72.50
14873;DHT22;7528;48.576;19.122;2022-12-29T03:40:18;3.30;72.20
14873;DHT22;7528;48.576;19.122;2022-12-29T03:45:23;3.40;72.30
14873;DHT22;7528;48.576;19.122;2022-12-29T03:50:27;3.50;72.10
14873;DHT22;7528;48.576;19.122;2022-12-29T03:55:30;3.40;72.70
14873;DHT22;7528;48.576;19.122;2022-12-29T04:00:33;3.50;72.90
14873;DHT22;7528;48.576;19.122;2022-12-29T04:05:37;3.60;72.70
14873;DHT22;7528;48.576;19.122;2022-12-29T04:10:40;3.60;72.50
14873;DHT22;7528;48.576;19.122;2022-12-29T04:15:43;3.60;72.60
14873;DHT22;7528;48.576;19.122;2022-12-29T04:20:48;3.70;72.50
14873;DHT22;7528;48.576;19.122;2022-12-29T04:26:05;3.60;72.40
14873;DHT22;7528;48.576;19.122;2022-12-29T04:31:11;3.70;72.80
14873;DHT22;7528;48.576;19.122;2022-12-29T04:36:17;3.80;72.50
14873;DHT22;7528;48.576;19.122;2022-12-29T04:41:20;3.80;72.40
14873;DHT22;7528;48.576;19.122;2022-12-29T04:46:23;3.80;72.30
14873;DHT22;7528;48.576;19.122;2022-12-29T04:51:33;3.80;72.40
14873;DHT22;7528;48.576;19.122;2022-12-29T04:56:35;3.90;72.30
14873;DHT22;7528;48.576;19.122;2022-12-29T05:01:37;3.90;72.20
14873;DHT22;7528;48.576;19.122;2022-12-29T05:06:41;3.90;72.00
14873;DHT22;7528;48.576;19.122;2022-12-29T05:11:44;3.90;72.20
14873;DHT22;7528;48.576;19.122;2022-12-29T05:16:47;3.90;72.40
14873;DHT22;7528;48.576;19.122;2022-12-29T05:21:51;4.00;72.70
14873;DHT22;7528;48.576;19.122;2022-12-29T05:26:53;4.00;72.80
14873;DHT22;7528;48.576;19.122;2022-12-29T05:32:14;4.10;72.80
14873;DHT22;7528;48.576;19.122;2022-12-29T05:37:19;4.10;72.80
14873;DHT22;7528;48.576;19.122;2022-12-29T05:42:22;4.10;72.70
14873;DHT22;7528;48.576;19.122;2022-12-29T05:48:03;4.10;72.10
14873;DHT22;7528;48.576;19.122;2022-12-29T05:53:26;4.20;72.00
14873;DHT22;7528;48.576;19.122;2022-12-29T05:58:31;4.10;72.00
14873;DHT22;7528;48.576;19.122;2022-12-29T06:03:34;4.20;72.20
14873;DHT22;7528;48.576;19.122;2022-12-29T06:08:39;4.30;72.40
14873;DHT22;7528;48.576;19.122;2022-12-29T06:13:41;4.30;72.50
14873;DHT22;7528;48.576;19.122;2022-12-29T06:18:45;4.30;72.10
14873;DHT22;7528;48.576;19.122;2022-12-29T06:23:49;4.20;71.90
14873;DHT22;7528;48.576;19.122;2022-12-29T06:28:51;4.20;72.10
14873;DHT22;7528;48.576;19.122;2022-12-29T06:33:54;4.20;72.20
14873;DHT22;7528;48.576;19.122;2022-12-29T06:38:58;4.10;72.60
14873;DHT22;7528;48.576;19.122;2022-12-29T06:44:01;4.10;72.70
14873;DHT22;7528;48.576;19.122;2022-12-29T06:49:22;4.20;72.60
14873;DHT22;7528;48.576;19.122;2022-12-29T06:54:25;4.20;72.60
14873;DHT22;7528;48.576;19.122;2022-12-29T06:59:28;4.20;72.60
14873;DHT22;7528;48.576;19.122;2022-12-29T07:04:30;4.30;72.40
14873;DHT22;7528;48.576;19.122;2022-12-29T07:09:34;4.40;72.40
14873;DHT22;7528;48.576;19.122;2022-12-29T07:14:36;4.40;72.60
14873;DHT22;7528;48.576;19.122;2022-12-29T07:19:40;4.50;72.60
14873;DHT22;7528;48.576;19.122;2022-12-29T07:24:44;4.50;72.40
14873;DHT22;7528;48.576;19.122;2022-12-29T07:29:46;4.60;72.10
14873;DHT22;7528;48.576;19.122;2022-12-29T07:34:49;4.60;72.00
14873;DHT22;7528;48.576;19.122;2022-12-29T07:39:53;4.70;72.20
14873;DHT22;7528;48.576;19.122;2022-12-29T07:44:55;4.70;72.70
14873;DHT22;7528;48.576;19.122;2022-12-29T07:50:08;4.80;72.00
14873;DHT22;7528;48.576;19.122;2022-12-29T10:32:56;3.80;82.00
14873;DHT22;7528;48.576;19.122;2022-12-29T16:34:21;4.10;81.10
14873;DHT22;7528;48.576;19.122;2022-12-29T16:39:31;4.60;81.70
14873;DHT22;7528;48.576;19.122;2022-12-29T16:44:34;5.20;77.50
14873;DHT22;7528;48.576;19.122;2022-12-29T16:49:40;5.50;75.00
14873;DHT22;7528;48.576;19.122;2022-12-29T16:54:49;5.60;73.80
14873;DHT22;7528;48.576;19.122;2022-12-29T21:00:01;2.20;89.90
14873;DHT22;7528;48.576;19.122;2022-12-29T21:05:04;2.80;90.50
14873;DHT22;7528;48.576;19.122;2022-12-29T21:10:07;3.50;86.70
14873;DHT22;7528;48.576;19.122;2022-12-29T21:15:11;4.00;83.70
14873;DHT22;7528;48.576;19.122;2022-12-29T21:20:15;4.20;81.70
14873;DHT22;7528;48.576;19.122;2022-12-29T21:25:20;4.30;80.40
14873;DHT22;7528;48.576;19.122;2022-12-29T21:30:24;4.40;80.10
14873;DHT22;7528;48.576;19.122;2022-12-29T21:35:26;4.40;79.30
14873;DHT22;7528;48.576;19.122;2022-12-29T21:40:29;4.40;78.60
14873;DHT22;7528;48.576;19.122;2022-12-29T21:45:33;4.30;77.60
14873;DHT22;7528;48.576;19.122;2022-12-29T22:03:50;3.30;78.50
14873;DHT22;7528;48.576;19.122;2022-12-29T22:09:10;3.30;81.40
14873;DHT22;7528;48.576;19.122;2022-12-29T22:14:29;3.70;80.90
14873;DHT22;7528;48.576;19.122;2022-12-29T22:19:33;3.90;79.30
14873;DHT22;7528;48.576;19.122;2022-12-29T22:24:35;3.90;77.90
14873;DHT22;7528;48.576;19.122;2022-12-29T22:29:38;4.00;77.60
14873;DHT22;7528;48.576;19.122;2022-12-29T22:34:42;3.90;78.10
14873;DHT22;7528;48.576;19.122;2022-12-29T22:39:45;4.00;77.80
14873;DHT22;7528;48.576;19.122;2022-12-29T22:44:47;4.00;77.20
14873;DHT22;7528;48.576;19.122;2022-12-29T22:49:51;4.00;76.90
14873;DHT22;7528;48.576;19.122;2022-12-29T22:54:53;4.10;77.40
14873;DHT22;7528;48.576;19.122;2022-12-29T22:59:55;4.10;77.10
14873;DHT22;7528;48.576;19.122;2022-12-29T23:04:59;4.10;76.60
14873;DHT22;7528;48.576;19.122;2022-12-29T23:10:02;4.10;76.30
14873;DHT22;7528;48.576;19.122;2022-12-29T23:15:05;4.10;76.50
14873;DHT22;7528;48.576;19.122;2022-12-29T23:20:10;4.10;76.30
14873;DHT22;7528;48.576;19.122;2022-12-29T23:25:12;4.10;76.50
14873;DHT22;7528;48.576;19.122;2022-12-29T23:30:15;4.10;76.30
14873;DHT22;7528;48.576;19.122;2022-12-29T23:35:18;4.00;75.90
14873;DHT22;7528;48.576;19.122;2022-12-29T23:40:21;4.00;76.20
14873;DHT22;7528;48.576;19.122;2022-12-29T23:45:23;3.90;76.30
14873;DHT22;7528;48.576;19.122;2022-12-29T23:50:27;3.90;76.20
14873;DHT22;7528;48.576;19.122;2022-12-29T23:55:29;4.00;76.00
